Time;durP1;ratioP1;P1;durP2;ratioP2;P2;SDS_P1;SDS_P2;PMS_P1;PMS_P2;Temp;Humidity;BMP_temperature;BMP_pressure;BME280_temperature;BME280_humidity;BME280_pressure;Samples;Min_cycle;Max_cycle;Signal;HPM_P1;HPM_P2
2022/11/26 00:00:53;;;;;;;19.55;10.38;;;8.60;99.90;;;;;;2075790;28;20040;-73
2022/11/26 00:01:53;;;;;;;31.05;12.77;;;8.60;99.90;;;;;;2077837;28;20033;-73
2022/11/26 00:02:54;;;;;;;25.00;12.02;;;8.50;99.90;;;;;;2085622;28;20027;-73
2022/11/26 00:03:56;;;;;;;26.50;12.88;;;8.50;99.90;;;;;;2084138;28;20652;-73
2022/11/26 00:04:57;;;;;;;30.75;14.25;;;8.60;99.90;;;;;;2077515;28;20045;-73
2022/11/26 00:05:58;;;;;;;25.23;13.48;;;8.60;99.90;;;;;;2067850;28;20082;-73
2022/11/26 00:06:59;;;;;;;22.02;11.07;;;8.50;99.90;;;;;;2069349;28;20121;-73
2022/11/26 00:07:59;;;;;;;28.85;13.70;;;8.50;99.90;;;;;;2077514;28;20028;-73
2022/11/26 00:09:02;;;;;;;24.17;12.57;;;8.50;99.90;;;;;;2077709;28;20079;-72
2022/11/26 00:10:07;;;;;;;24.65;13.70;;;8.50;99.90;;;;;;2077333;28;20014;-73
2022/11/26 00:11:14;;;;;;;27.67;12.95;;;8.50;99.90;;;;;;2076833;28;20490;-73
2022/11/26 00:12:17;;;;;;;25.45;13.25;;;8.50;99.90;;;;;;2077875;28;20077;-73
2022/11/26 00:13:24;;;;;;;34.30;14.63;;;8.50;99.90;;;;;;2077928;28;20554;-73
2022/11/26 00:14:25;;;;;;;26.48;14.02;;;8.50;99.90;;;;;;2078019;28;20029;-73
2022/11/26 00:15:28;;;;;;;29.73;13.80;;;8.50;99.90;;;;;;2075439;28;20041;-73
2022/11/26 00:16:29;;;;;;;27.20;13.13;;;8.50;99.90;;;;;;2077841;28;20021;-73
2022/11/26 00:17:30;;;;;;;26.02;14.00;;;8.50;99.90;;;;;;2077314;28;20084;-73
2022/11/26 00:18:30;;;;;;;25.55;13.73;;;8.50;99.90;;;;;;2077113;28;20072;-73
2022/11/26 00:19:31;;;;;;;23.17;13.07;;;8.40;99.90;;;;;;2076635;28;20048;-73
2022/11/26 00:20:32;;;;;;;27.92;13.73;;;8.40;99.90;;;;;;2077826;28;20119;-73
2022/11/26 00:21:38;;;;;;;36.35;14.65;;;8.40;99.90;;;;;;2078407;28;20032;-73
2022/11/26 00:22:43;;;;;;;26.17;12.35;;;8.50;99.90;;;;;;2076725;28;20179;-73
2022/11/26 00:23:43;;;;;;;28.77;13.13;;;8.40;99.90;;;;;;2076857;28;20024;-73
2022/11/26 00:24:44;;;;;;;25.55;13.35;;;8.40;99.90;;;;;;2075711;28;20022;-73
2022/11/26 00:25:47;;;;;;;29.25;14.20;;;8.40;99.90;;;;;;2078658;28;20021;-73
2022/11/26 00:26:48;;;;;;;32.63;14.20;;;8.40;99.90;;;;;;2076550;28;20063;-72
2022/11/26 00:27:51;;;;;;;30.45;13.77;;;8.40;99.90;;;;;;2077037;28;20112;-73
2022/11/26 00:28:54;;;;;;;23.45;13.52;;;8.40;99.90;;;;;;2077633;28;20112;-72
2022/11/26 00:29:55;;;;;;;29.02;13.60;;;8.40;99.90;;;;;;2085131;28;20024;-73
2022/11/26 00:30:58;;;;;;;34.88;14.55;;;8.40;99.90;;;;;;2084264;28;20036;-72
2022/11/26 00:31:58;;;;;;;32.95;14.57;;;8.40;99.90;;;;;;2077447;28;20358;-73
2022/11/26 00:32:59;;;;;;;28.75;14.55;;;8.40;99.90;;;;;;2076075;28;20030;-72
2022/11/26 00:34:00;;;;;;;27.30;12.90;;;8.40;99.90;;;;;;2077737;28;20029;-72
2022/11/26 00:35:00;;;;;;;27.58;13.30;;;8.40;99.90;;;;;;2074375;28;20029;-72
2022/11/26 00:36:05;;;;;;;35.25;14.63;;;8.40;99.90;;;;;;2076081;28;20038;-73
2022/11/26 00:37:19;;;;;;;25.65;13.38;;;8.40;99.90;;;;;;2078532;28;20022;-72
2022/11/26 00:38:21;;;;;;;25.15;13.82;;;8.40;99.90;;;;;;2077664;28;20128;-73
2022/11/26 00:39:23;;;;;;;32.10;15.23;;;8.40;99.90;;;;;;2077576;28;20029;-72
2022/11/26 00:40:26;;;;;;;32.30;14.02;;;8.40;99.90;;;;;;2077602;28;20088;-72
2022/11/26 00:41:31;;;;;;;38.20;14.63;;;8.40;99.90;;;;;;2076250;28;20084;-73
2022/11/26 00:42:32;;;;;;;37.33;14.98;;;8.40;99.90;;;;;;2073653;28;20052;-73
2022/11/26 00:43:32;;;;;;;26.13;13.80;;;8.40;99.90;;;;;;2078238;28;20040;-72
2022/11/26 00:44:33;;;;;;;29.40;14.75;;;8.40;99.90;;;;;;2074613;28;20560;-73
2022/11/26 00:45:33;;;;;;;34.15;14.52;;;8.40;99.90;;;;;;2078546;28;20389;-73
2022/11/26 00:46:34;;;;;;;32.70;14.32;;;8.40;99.90;;;;;;2076191;28;20551;-73
2022/11/26 00:47:34;;;;;;;30.67;13.45;;;8.40;99.90;;;;;;2075745;28;20021;-73
2022/11/26 00:48:35;;;;;;;33.17;15.90;;;8.50;99.90;;;;;;2083577;28;20024;-73
2022/11/26 00:49:36;;;;;;;28.85;15.10;;;8.50;99.90;;;;;;2085006;28;20017;-73
2022/11/26 00:50:42;;;;;;;35.40;15.10;;;8.50;99.90;;;;;;2076157;28;20105;-73
2022/11/26 00:51:45;;;;;;;30.00;14.55;;;8.50;99.90;;;;;;2075718;28;20030;-73
2022/11/26 00:52:47;;;;;;;36.70;16.38;;;8.50;99.90;;;;;;2076623;28;20053;-73
2022/11/26 00:53:49;;;;;;;27.40;14.68;;;8.50;99.90;;;;;;2077964;28;20033;-72
2022/11/26 00:54:50;;;;;;;30.80;14.80;;;8.50;99.90;;;;;;2076182;28;20416;-72
2022/11/26 00:55:50;;;;;;;31.10;14.77;;;8.50;99.90;;;;;;2079370;28;20037;-73
2022/11/26 00:56:51;;;;;;;29.70;14.88;;;8.50;99.90;;;;;;2079435;28;20588;-73
2022/11/26 00:57:52;;;;;;;28.27;14.32;;;8.60;99.90;;;;;;2076333;28;20048;-73
2022/11/26 00:58:53;;;;;;;29.80;14.57;;;8.60;99.90;;;;;;2078614;28;20076;-72
2022/11/26 00:59:53;;;;;;;31.70;13.07;;;8.50;99.90;;;;;;2077403;28;20026;-73
2022/11/26 01:00:56;;;;;;;27.13;14.05;;;8.60;99.90;;;;;;2077497;28;20040;-73
2022/11/26 01:01:56;;;;;;;27.10;15.05;;;8.60;99.90;;;;;;2076906;28;20055;-73
2022/11/26 01:02:58;;;;;;;27.63;13.90;;;8.50;99.90;;;;;;2075653;28;20048;-73
2022/11/26 01:03:58;;;;;;;38.05;14.68;;;8.50;99.90;;;;;;2075621;28;20030;-73
2022/11/26 01:04:59;;;;;;;26.00;13.60;;;8.50;99.90;;;;;;2077929;28;20025;-73
2022/11/26 01:06:00;;;;;;;26.45;14.27;;;8.50;99.90;;;;;;2077052;28;20060;-73
2022/11/26 01:07:00;;;;;;;25.02;12.90;;;8.60;99.90;;;;;;2077676;28;20024;-73
2022/11/26 01:08:14;;;;;;;29.70;14.00;;;8.60;99.90;;;;;;2078055;28;20548;-72
2022/11/26 01:09:18;;;;;;;29.45;14.98;;;8.60;99.90;;;;;;2074974;28;20389;-72
2022/11/26 01:10:27;;;;;;;31.38;14.07;;;8.50;99.90;;;;;;2076270;28;20033;-72
2022/11/26 01:11:28;;;;;;;28.60;13.93;;;8.60;99.90;;;;;;2076491;28;20473;-73
2022/11/26 01:12:28;;;;;;;30.50;13.43;;;8.50;99.90;;;;;;2072909;28;20393;-73
2022/11/26 01:13:30;;;;;;;26.33;13.52;;;8.50;99.90;;;;;;2085710;28;20492;-73
2022/11/26 01:14:30;;;;;;;27.30;14.18;;;8.50;99.90;;;;;;2075134;28;20055;-73
2022/11/26 01:15:31;;;;;;;32.58;14.82;;;8.50;99.90;;;;;;2069021;28;20497;-73
2022/11/26 01:16:35;;;;;;;30.92;14.32;;;8.50;99.90;;;;;;2076373;28;20080;-73
2022/11/26 01:17:36;;;;;;;32.15;13.93;;;8.50;99.90;;;;;;2076472;28;20029;-72
2022/11/26 01:18:36;;;;;;;23.27;14.13;;;8.50;99.90;;;;;;2075981;28;20104;-73
2022/11/26 01:19:37;;;;;;;28.33;13.90;;;8.50;99.90;;;;;;2077152;28;20112;-73
2022/11/26 01:20:37;;;;;;;27.15;14.38;;;8.50;99.90;;;;;;2078055;28;20025;-72
2022/11/26 01:21:38;;;;;;;26.52;13.40;;;8.50;99.90;;;;;;2077383;28;20112;-73
2022/11/26 01:22:38;;;;;;;29.55;14.77;;;8.50;99.90;;;;;;2076324;28;20515;-73
2022/11/26 01:23:39;;;;;;;31.17;14.43;;;8.50;99.90;;;;;;2076597;28;20087;-73
2022/11/26 01:24:40;;;;;;;35.58;14.75;;;8.50;99.90;;;;;;2077662;28;20091;-73
2022/11/26 01:25:41;;;;;;;31.90;14.82;;;8.50;99.90;;;;;;2076634;28;20034;-73
2022/11/26 01:26:43;;;;;;;29.75;14.75;;;8.50;99.90;;;;;;2075908;28;20626;-72
2022/11/26 01:27:43;;;;;;;30.58;14.45;;;8.50;99.90;;;;;;2076325;28;20038;-72
2022/11/26 01:28:44;;;;;;;29.20;14.50;;;8.50;99.90;;;;;;2076893;28;20026;-73
2022/11/26 01:29:45;;;;;;;36.08;16.38;;;8.50;99.90;;;;;;2078154;28;20176;-73
2022/11/26 01:30:45;;;;;;;34.40;14.88;;;8.40;99.90;;;;;;2077041;28;20017;-72
2022/11/26 01:31:46;;;;;;;31.40;14.32;;;8.40;99.90;;;;;;2078703;28;20021;-72
2022/11/26 01:32:48;;;;;;;38.53;15.18;;;8.50;99.90;;;;;;2077077;28;20040;-72
2022/11/26 01:33:49;;;;;;;36.40;15.18;;;8.40;99.90;;;;;;2076712;28;20052;-73
2022/11/26 01:34:50;;;;;;;31.33;14.68;;;8.40;99.90;;;;;;2077153;28;20517;-73
2022/11/26 01:35:51;;;;;;;29.25;14.32;;;8.40;99.90;;;;;;2076352;28;20397;-72
2022/11/26 01:36:51;;;;;;;36.42;15.07;;;8.50;99.90;;;;;;2076693;28;20017;-73
2022/11/26 01:37:52;;;;;;;29.83;14.48;;;8.40;99.90;;;;;;2077522;28;20116;-72
2022/11/26 01:38:56;;;;;;;29.90;14.73;;;8.50;99.90;;;;;;2083262;28;20052;-73
2022/11/26 01:39:56;;;;;;;32.33;15.73;;;8.50;99.90;;;;;;2081068;28;20139;-73
2022/11/26 01:41:15;;;;;;;30.58;14.80;;;8.50;99.90;;;;;;2078214;28;20029;-72
2022/11/26 01:42:39;;;;;;;36.97;15.23;;;8.40;99.90;;;;;;2077084;28;20113;-73
2022/11/26 01:43:41;;;;;;;31.10;14.20;;;8.40;99.90;;;;;;2076627;28;20026;-73
2022/11/26 01:44:42;;;;;;;38.67;15.57;;;8.40;99.90;;;;;;2074656;28;20093;-73
2022/11/26 01:45:43;;;;;;;27.85;14.18;;;8.50;99.90;;;;;;2076144;28;20033;-73
2022/11/26 01:46:44;;;;;;;26.70;14.20;;;8.50;99.90;;;;;;2075782;28;20025;-73
2022/11/26 01:47:47;;;;;;;31.92;15.57;;;8.50;99.90;;;;;;2077595;28;21123;-72
2022/11/26 01:48:49;;;;;;;31.13;14.65;;;8.40;99.90;;;;;;2077728;28;20021;-73
2022/11/26 01:50:26;;;;;;;29.17;14.30;;;8.50;99.90;;;;;;2076990;28;20036;-73
2022/11/26 01:51:28;;;;;;;30.60;14.25;;;8.50;99.90;;;;;;2076969;28;20022;-72
2022/11/26 01:52:28;;;;;;;20.67;12.63;;;8.50;99.90;;;;;;2076232;28;20103;-72
2022/11/26 01:53:32;;;;;;;31.80;13.32;;;8.40;99.90;;;;;;2076682;28;20079;-72
2022/11/26 01:54:35;;;;;;;33.92;13.98;;;8.50;99.90;;;;;;2077066;28;20021;-73
2022/11/26 01:55:43;;;;;;;29.55;14.32;;;8.50;99.90;;;;;;2077048;28;20021;-73
2022/11/26 01:56:47;;;;;;;32.20;13.70;;;8.50;99.90;;;;;;2075911;28;20022;-73
2022/11/26 01:57:49;;;;;;;34.08;13.95;;;8.50;99.90;;;;;;2075571;28;20176;-73
2022/11/26 01:59:09;;;;;;;33.70;14.82;;;8.50;99.90;;;;;;2078247;28;20030;-73
2022/11/26 02:00:10;;;;;;;28.35;13.32;;;8.50;99.90;;;;;;2078603;28;20037;-73
2022/11/26 02:01:11;;;;;;;26.55;14.82;;;8.50;99.90;;;;;;2077976;28;20042;-72
2022/11/26 02:02:12;;;;;;;31.90;14.18;;;8.50;99.90;;;;;;2078195;28;20034;-73
2022/11/26 02:03:12;;;;;;;28.80;13.68;;;8.50;99.90;;;;;;2075944;28;20440;-73
2022/11/26 02:04:21;;;;;;;31.05;13.65;;;8.50;99.90;;;;;;2076977;28;20025;-72
2022/11/26 02:05:26;;;;;;;27.50;13.13;;;8.50;99.90;;;;;;2077168;28;20740;-73
2022/11/26 02:06:31;;;;;;;29.48;13.30;;;8.50;99.90;;;;;;2076013;28;20033;-73
2022/11/26 02:07:33;;;;;;;29.70;13.52;;;8.50;99.90;;;;;;2076569;28;20439;-72
2022/11/26 02:08:34;;;;;;;26.63;12.27;;;8.60;99.90;;;;;;2077682;28;20953;-73
2022/11/26 02:09:35;;;;;;;31.27;13.70;;;8.50;99.90;;;;;;2077357;28;20377;-73
2022/11/26 02:10:36;;;;;;;28.25;14.07;;;8.50;99.90;;;;;;2076201;28;20108;-73
2022/11/26 02:11:37;;;;;;;26.23;12.35;;;8.60;99.90;;;;;;2084985;28;20658;-73
2022/11/26 02:12:39;;;;;;;37.28;13.82;;;8.60;99.90;;;;;;2083105;28;20025;-73
2022/11/26 02:13:40;;;;;;;25.75;11.98;;;8.60;99.90;;;;;;2077040;28;20584;-72
2022/11/26 02:14:42;;;;;;;26.50;11.90;;;8.60;99.90;;;;;;2076790;28;20096;-73
2022/11/26 02:16:12;;;;;;;33.08;13.25;;;8.60;99.90;;;;;;2076664;28;20026;-73
2022/11/26 02:17:21;;;;;;;27.05;12.45;;;8.60;99.90;;;;;;2074537;28;20046;-73
2022/11/26 02:18:25;;;;;;;25.70;12.40;;;8.60;99.90;;;;;;2077948;28;20021;-72
2022/11/26 02:19:52;;;;;;;27.42;11.77;;;8.60;99.90;;;;;;2077119;28;20036;-73
2022/11/26 02:21:06;;;;;;;27.42;12.48;;;8.60;99.90;;;;;;2077669;28;20013;-72
2022/11/26 02:22:30;;;;;;;26.33;13.07;;;8.60;99.90;;;;;;2076836;28;20140;-73
2022/11/26 02:23:55;;;;;;;25.83;12.20;;;8.60;99.90;;;;;;2069245;28;20088;-73
2022/11/26 02:25:22;;;;;;;31.50;12.57;;;8.60;99.90;;;;;;2079317;28;20025;-73
2022/11/26 02:26:55;;;;;;;31.20;13.15;;;8.60;99.90;;;;;;2076765;28;20105;-73
2022/11/26 02:28:14;;;;;;;29.95;12.35;;;8.60;99.90;;;;;;2078274;28;20032;-73
2022/11/26 02:29:52;;;;;;;28.10;13.25;;;8.60;99.90;;;;;;2078667;28;20025;-72
2022/11/26 02:31:00;;;;;;;25.33;12.52;;;8.60;99.90;;;;;;2079200;28;20032;-73
2022/11/26 02:32:12;;;;;;;26.52;12.05;;;8.60;99.90;;;;;;2078051;28;20534;-73
2022/11/26 02:33:42;;;;;;;25.30;12.40;;;8.60;99.90;;;;;;2078149;28;20481;-73
2022/11/26 02:34:53;;;;;;;27.80;11.90;;;8.60;99.90;;;;;;2076444;28;20401;-73
2022/11/26 02:36:05;;;;;;;30.50;11.98;;;8.60;99.90;;;;;;2077557;28;20448;-73
2022/11/26 02:37:15;;;;;;;25.08;11.85;;;8.60;99.90;;;;;;2075505;28;20712;-73
2022/11/26 02:38:22;;;;;;;26.00;11.65;;;8.60;99.90;;;;;;2077304;28;20026;-73
2022/11/26 02:39:25;;;;;;;27.23;11.93;;;8.60;99.90;;;;;;2077476;28;20032;-73
2022/11/26 02:40:26;;;;;;;26.67;12.20;;;8.60;99.90;;;;;;2077474;28;20053;-73
2022/11/26 02:41:32;;;;;;;24.98;10.70;;;8.60;99.90;;;;;;2078689;28;20063;-73
2022/11/26 02:42:35;;;;;;;26.35;12.48;;;8.60;99.90;;;;;;2077189;28;20030;-73
2022/11/26 02:43:37;;;;;;;25.17;11.55;;;8.60;99.90;;;;;;2079144;28;20100;-73
2022/11/26 02:44:43;;;;;;;30.52;11.02;;;8.60;99.90;;;;;;2077311;28;20463;-72
2022/11/26 02:45:52;;;;;;;25.33;10.10;;;8.60;99.90;;;;;;2078321;28;20701;-73
2022/11/26 02:47:03;;;;;;;24.25;11.52;;;8.60;99.90;;;;;;2077944;28;20053;-73
2022/11/26 02:48:09;;;;;;;29.17;11.05;;;8.60;99.90;;;;;;2079387;28;20026;-73
2022/11/26 02:49:13;;;;;;;29.42;11.82;;;8.60;99.90;;;;;;2076534;28;21652;-73
2022/11/26 02:50:20;;;;;;;22.20;10.90;;;8.60;99.90;;;;;;2078544;28;20028;-73
2022/11/26 02:51:24;;;;;;;29.50;10.95;;;8.60;99.90;;;;;;2078018;28;20021;-73
2022/11/26 02:52:26;;;;;;;20.83;10.45;;;8.60;99.90;;;;;;2077610;28;20032;-72
2022/11/26 02:53:30;;;;;;;27.27;10.60;;;8.60;99.90;;;;;;2079030;28;20033;-73
2022/11/26 02:54:33;;;;;;;24.83;10.40;;;8.60;99.90;;;;;;2078015;28;20047;-73
2022/11/26 02:55:38;;;;;;;25.60;11.52;;;8.60;99.90;;;;;;2077015;28;20025;-73
2022/11/26 02:56:40;;;;;;;25.27;11.13;;;8.60;99.90;;;;;;2086101;28;20017;-73
2022/11/26 02:57:47;;;;;;;18.90;8.98;;;8.60;99.90;;;;;;2084976;28;20107;-73
2022/11/26 02:58:53;;;;;;;25.27;10.27;;;8.60;99.90;;;;;;2076512;28;20358;-73
2022/11/26 02:59:53;;;;;;;21.30;10.50;;;8.60;99.90;;;;;;2078219;28;20037;-73
2022/11/26 03:00:57;;;;;;;20.65;11.00;;;8.60;99.90;;;;;;2079267;28;20022;-72
2022/11/26 03:02:15;;;;;;;25.98;10.38;;;8.50;99.90;;;;;;2076154;28;20053;-73
2022/11/26 03:03:24;;;;;;;22.27;9.68;;;8.50;99.90;;;;;;2076229;28;20030;-73
2022/11/26 03:04:31;;;;;;;19.77;9.50;;;8.50;99.90;;;;;;2078393;28;20018;-73
2022/11/26 03:05:34;;;;;;;28.25;10.07;;;8.50;99.90;;;;;;2076047;28;20564;-73
2022/11/26 03:06:35;;;;;;;23.92;10.00;;;8.50;99.90;;;;;;2075411;28;20056;-73
2022/11/26 03:07:36;;;;;;;21.00;9.93;;;8.50;99.90;;;;;;2077201;28;20049;-73
2022/11/26 03:08:37;;;;;;;21.63;9.98;;;8.40;99.90;;;;;;2077931;28;20017;-73
2022/11/26 03:09:52;;;;;;;17.65;8.75;;;8.40;99.90;;;;;;2076629;28;20033;-72
2022/11/26 03:10:53;;;;;;;20.98;9.95;;;8.40;99.90;;;;;;2077350;28;20025;-73
2022/11/26 03:11:53;;;;;;;18.35;8.18;;;8.40;99.90;;;;;;2077987;28;20018;-73
2022/11/26 03:12:54;;;;;;;24.10;9.93;;;8.40;99.90;;;;;;2077649;28;20035;-73
2022/11/26 03:13:55;;;;;;;18.73;9.55;;;8.40;99.90;;;;;;2077796;28;20032;-73
2022/11/26 03:14:55;;;;;;;24.88;10.27;;;8.40;99.90;;;;;;2078027;28;20096;-73
2022/11/26 03:15:56;;;;;;;20.58;9.85;;;8.40;99.90;;;;;;2077580;28;20018;-73
2022/11/26 03:16:57;;;;;;;20.13;9.65;;;8.30;99.90;;;;;;2078321;28;20022;-73
2022/11/26 03:17:57;;;;;;;20.08;9.63;;;8.30;99.90;;;;;;2077401;28;20045;-73
2022/11/26 03:18:58;;;;;;;25.23;10.05;;;8.30;99.90;;;;;;2077211;28;20028;-73
2022/11/26 03:19:58;;;;;;;27.83;10.85;;;8.30;99.90;;;;;;2077993;28;20753;-73
2022/11/26 03:20:59;;;;;;;19.58;9.93;;;8.30;99.90;;;;;;2078177;28;20021;-73
2022/11/26 03:21:59;;;;;;;17.50;8.35;;;8.30;99.90;;;;;;2077435;28;20017;-73
2022/11/26 03:23:00;;;;;;;19.92;9.80;;;8.30;99.90;;;;;;2077208;28;20041;-73
2022/11/26 03:24:01;;;;;;;17.73;8.65;;;8.30;99.90;;;;;;2078122;28;20489;-73
2022/11/26 03:25:03;;;;;;;24.65;9.43;;;8.20;99.90;;;;;;2076273;28;20018;-73
2022/11/26 03:26:03;;;;;;;22.35;8.98;;;8.30;99.90;;;;;;2078118;28;20418;-73
2022/11/26 03:27:04;;;;;;;20.23;9.75;;;8.20;99.90;;;;;;2075987;28;20119;-73
2022/11/26 03:28:05;;;;;;;18.75;9.05;;;8.20;99.90;;;;;;2078560;28;20477;-73
2022/11/26 03:29:06;;;;;;;20.13;8.15;;;8.20;99.90;;;;;;2075749;28;20024;-73
2022/11/26 03:30:07;;;;;;;23.58;9.55;;;8.20;99.90;;;;;;2077765;28;20014;-73
2022/11/26 03:31:07;;;;;;;15.98;8.60;;;8.20;99.90;;;;;;2076650;28;20068;-73
2022/11/26 03:32:08;;;;;;;20.73;9.43;;;8.20;99.90;;;;;;2076725;28;20061;-73
2022/11/26 03:33:08;;;;;;;18.45;8.10;;;8.10;99.90;;;;;;2076236;28;20053;-73
2022/11/26 03:34:09;;;;;;;11.98;7.05;;;8.20;99.90;;;;;;2076653;28;20026;-73
2022/11/26 03:35:09;;;;;;;20.58;9.35;;;8.10;99.90;;;;;;2077109;28;20029;-73
2022/11/26 03:36:10;;;;;;;18.50;8.20;;;8.10;99.90;;;;;;2077475;28;20738;-73
2022/11/26 03:37:10;;;;;;;19.17;9.13;;;8.10;99.90;;;;;;2069584;28;20760;-72
2022/11/26 03:38:11;;;;;;;19.65;9.18;;;8.10;99.90;;;;;;2078342;28;20064;-73
2022/11/26 03:39:12;;;;;;;18.08;7.90;;;8.10;99.90;;;;;;2077122;28;21444;-73
2022/11/26 03:40:12;;;;;;;16.65;8.25;;;8.10;99.90;;;;;;2075418;28;20041;-73
2022/11/26 03:41:13;;;;;;;16.48;8.48;;;8.10;99.90;;;;;;2078844;28;20034;-73
2022/11/26 03:42:13;;;;;;;16.77;7.53;;;8.10;99.90;;;;;;2076962;28;20117;-73
2022/11/26 03:43:14;;;;;;;16.98;7.70;;;8.00;99.90;;;;;;2075907;28;20029;-73
2022/11/26 03:44:14;;;;;;;14.40;7.07;;;8.00;99.90;;;;;;2077462;28;20516;-73
2022/11/26 03:45:15;;;;;;;18.77;7.68;;;8.00;99.90;;;;;;2078380;28;20114;-73
2022/11/26 03:46:15;;;;;;;18.67;7.85;;;8.00;99.90;;;;;;2075936;28;20051;-73
2022/11/26 03:47:16;;;;;;;16.05;6.75;;;8.00;99.90;;;;;;2078010;28;20037;-73
2022/11/26 03:48:17;;;;;;;17.33;7.88;;;8.00;99.90;;;;;;2077719;28;20791;-73
2022/11/26 03:49:17;;;;;;;20.50;8.38;;;7.90;99.90;;;;;;2077407;28;20053;-73
2022/11/26 03:50:18;;;;;;;20.23;8.70;;;7.90;99.90;;;;;;2074743;28;20026;-73
2022/11/26 03:51:18;;;;;;;18.35;8.63;;;7.90;99.90;;;;;;2076639;28;20631;-73
2022/11/26 03:52:19;;;;;;;16.92;7.97;;;7.90;99.90;;;;;;2085975;28;20140;-73
2022/11/26 03:53:20;;;;;;;10.65;6.15;;;7.90;99.90;;;;;;2084556;28;20033;-73
2022/11/26 03:54:20;;;;;;;15.65;8.30;;;7.90;99.90;;;;;;2077650;28;20025;-73
2022/11/26 03:55:21;;;;;;;13.57;7.00;;;7.90;99.90;;;;;;2075240;28;20096;-73
2022/11/26 03:56:22;;;;;;;16.92;7.07;;;7.80;99.90;;;;;;2075035;28;20025;-73
2022/11/26 03:57:22;;;;;;;15.32;8.57;;;7.80;99.90;;;;;;2077401;28;20049;-73
2022/11/26 03:58:23;;;;;;;18.10;8.38;;;7.80;99.90;;;;;;2078067;28;20804;-73
2022/11/26 03:59:23;;;;;;;15.10;7.25;;;7.80;99.90;;;;;;2076628;28;20022;-72
2022/11/26 04:00:24;;;;;;;14.40;7.10;;;7.80;99.90;;;;;;2078247;28;20021;-72
2022/11/26 04:01:24;;;;;;;14.65;7.47;;;7.70;99.90;;;;;;2077603;28;20580;-73
2022/11/26 04:02:25;;;;;;;15.38;6.85;;;7.70;99.90;;;;;;2077067;28;20034;-73
2022/11/26 04:03:25;;;;;;;11.40;6.38;;;7.70;99.90;;;;;;2072914;28;20064;-73
2022/11/26 04:04:26;;;;;;;8.55;5.53;;;7.70;99.90;;;;;;2082420;28;20735;-73
2022/11/26 04:05:27;;;;;;;10.85;6.20;;;7.70;99.90;;;;;;2077801;28;20021;-73
2022/11/26 04:06:28;;;;;;;14.63;7.60;;;7.60;99.90;;;;;;2077129;28;20140;-73
2022/11/26 04:07:28;;;;;;;14.68;7.07;;;7.60;99.90;;;;;;2077937;28;20021;-73
2022/11/26 04:08:29;;;;;;;13.90;6.97;;;7.60;99.90;;;;;;2077982;28;20109;-73
2022/11/26 04:09:29;;;;;;;16.30;6.90;;;7.60;99.90;;;;;;2076545;28;20025;-73
2022/11/26 04:10:30;;;;;;;17.60;7.07;;;7.60;99.90;;;;;;2078837;28;20493;-73
2022/11/26 04:11:30;;;;;;;16.98;8.48;;;7.60;99.90;;;;;;2078910;28;20024;-72
2022/11/26 04:12:31;;;;;;;16.65;8.38;;;7.60;99.90;;;;;;2078049;28;20056;-73
2022/11/26 04:13:31;;;;;;;15.75;8.25;;;7.50;99.90;;;;;;2078779;28;20021;-72
2022/11/26 04:14:32;;;;;;;11.05;6.75;;;7.50;99.90;;;;;;2077086;28;20021;-73
2022/11/26 04:15:33;;;;;;;15.68;6.95;;;7.50;99.90;;;;;;2078496;28;20057;-72
2022/11/26 04:16:34;;;;;;;17.52;8.68;;;7.50;99.90;;;;;;2077262;28;20025;-74
2022/11/26 04:17:35;;;;;;;18.00;8.45;;;7.50;99.90;;;;;;2076989;28;20109;-73
2022/11/26 04:18:35;;;;;;;18.65;7.60;;;7.50;99.90;;;;;;2075867;28;20425;-73
2022/11/26 04:19:36;;;;;;;17.15;7.20;;;7.50;99.90;;;;;;2076967;28;20021;-73
2022/11/26 04:20:37;;;;;;;19.50;8.32;;;7.50;99.90;;;;;;2078757;28;20025;-72
2022/11/26 04:21:37;;;;;;;14.23;7.63;;;7.40;99.90;;;;;;2077665;28;20029;-73
2022/11/26 04:22:38;;;;;;;18.15;8.35;;;7.40;99.90;;;;;;2077160;28;20680;-73
2022/11/26 04:23:39;;;;;;;22.20;9.27;;;7.40;99.90;;;;;;2077277;28;20025;-72
2022/11/26 04:24:39;;;;;;;24.52;8.95;;;7.40;99.90;;;;;;2076692;28;20022;-73
2022/11/26 04:25:40;;;;;;;18.25;8.98;;;7.40;99.90;;;;;;2074570;28;20033;-73
2022/11/26 04:26:40;;;;;;;17.05;8.77;;;7.40;99.90;;;;;;2073444;28;20034;-73
2022/11/26 04:27:41;;;;;;;17.00;9.20;;;7.30;99.90;;;;;;2076476;28;20112;-73
2022/11/26 04:28:41;;;;;;;18.80;9.50;;;7.40;99.90;;;;;;2078408;28;20025;-73
2022/11/26 04:29:42;;;;;;;16.58;9.45;;;7.30;99.90;;;;;;2077752;28;20103;-73
2022/11/26 04:30:43;;;;;;;25.77;11.35;;;7.30;99.90;;;;;;2077143;28;20059;-73
2022/11/26 04:31:43;;;;;;;24.17;11.32;;;7.30;99.90;;;;;;2076002;28;20021;-72
2022/11/26 04:32:44;;;;;;;20.35;10.75;;;7.30;99.90;;;;;;2082857;28;20028;-73
2022/11/26 04:33:44;;;;;;;27.98;12.30;;;7.30;99.90;;;;;;2078349;28;20626;-72
2022/11/26 04:34:45;;;;;;;26.65;13.35;;;7.30;99.90;;;;;;2077165;28;20044;-73
2022/11/26 04:35:46;;;;;;;29.05;12.07;;;7.30;99.90;;;;;;2076572;28;20389;-73
2022/11/26 04:36:46;;;;;;;26.95;13.00;;;7.20;99.90;;;;;;2074979;28;20034;-73
2022/11/26 04:37:47;;;;;;;27.90;13.32;;;7.20;99.90;;;;;;2076211;28;20453;-72
2022/11/26 04:38:47;;;;;;;25.63;13.00;;;7.20;99.90;;;;;;2078153;28;20033;-73
2022/11/26 04:39:48;;;;;;;33.28;14.07;;;7.20;99.90;;;;;;2076212;28;20022;-73
2022/11/26 04:40:48;;;;;;;31.10;14.10;;;7.20;99.90;;;;;;2073655;28;20029;-73
2022/11/26 04:41:49;;;;;;;26.52;14.10;;;7.20;99.90;;;;;;2076600;28;20035;-73
2022/11/26 04:42:49;;;;;;;27.50;14.95;;;7.20;99.90;;;;;;2076203;28;20457;-72
2022/11/26 04:43:50;;;;;;;26.42;13.25;;;7.20;99.90;;;;;;2077296;28;20022;-73
2022/11/26 04:44:50;;;;;;;29.42;13.55;;;7.20;99.90;;;;;;2078180;28;20132;-73
2022/11/26 04:45:51;;;;;;;27.65;14.40;;;7.20;99.90;;;;;;2076195;28;20482;-73
2022/11/26 04:46:52;;;;;;;26.08;13.02;;;7.20;99.90;;;;;;2076831;28;20022;-73
2022/11/26 04:47:53;;;;;;;26.88;13.40;;;7.20;99.90;;;;;;2076761;28;20025;-73
2022/11/26 04:48:53;;;;;;;21.23;11.85;;;7.20;99.90;;;;;;2086082;28;20032;-72
2022/11/26 04:49:54;;;;;;;24.50;12.73;;;7.20;99.90;;;;;;2085477;28;20765;-73
2022/11/26 04:50:54;;;;;;;25.77;13.00;;;7.20;99.90;;;;;;2075866;28;20034;-72
2022/11/26 04:51:55;;;;;;;27.42;14.38;;;7.20;99.90;;;;;;2077178;28;20009;-73
2022/11/26 04:52:55;;;;;;;27.05;13.52;;;7.20;99.90;;;;;;2084653;28;20094;-73
2022/11/26 04:53:56;;;;;;;23.73;11.25;;;7.20;99.90;;;;;;2085506;28;20601;-72
2022/11/26 04:54:56;;;;;;;24.08;11.30;;;7.20;99.90;;;;;;2078199;28;20022;-73
2022/11/26 04:55:57;;;;;;;26.00;13.80;;;7.10;99.90;;;;;;2074008;28;20389;-73
2022/11/26 04:56:58;;;;;;;27.73;13.82;;;7.20;99.90;;;;;;2076865;28;20048;-73
2022/11/26 04:57:58;;;;;;;27.98;14.63;;;7.10;99.90;;;;;;2075413;28;20497;-73
2022/11/26 04:58:59;;;;;;;24.80;11.45;;;7.10;99.90;;;;;;2076514;28;20041;-73
2022/11/26 04:59:59;;;;;;;23.75;12.65;;;7.10;99.90;;;;;;2075722;28;20017;-73
2022/11/26 05:01:00;;;;;;;21.13;11.15;;;7.10;99.90;;;;;;2076587;28;20071;-73
2022/11/26 05:02:01;;;;;;;21.90;12.93;;;7.10;99.90;;;;;;2075876;28;20022;-73
2022/11/26 05:03:01;;;;;;;22.98;12.32;;;7.10;99.90;;;;;;2077153;28;20043;-73
2022/11/26 05:04:02;;;;;;;24.15;12.07;;;7.10;99.90;;;;;;2076713;28;20535;-73
2022/11/26 05:05:02;;;;;;;22.88;12.23;;;7.10;99.90;;;;;;2076393;28;20037;-73
2022/11/26 05:06:03;;;;;;;23.35;11.95;;;7.10;99.90;;;;;;2076320;28;20041;-73
2022/11/26 05:07:04;;;;;;;21.23;11.50;;;7.10;99.90;;;;;;2080940;28;20134;-73
2022/11/26 05:08:05;;;;;;;18.60;10.70;;;7.10;99.90;;;;;;2076157;28;20109;-73
2022/11/26 05:09:06;;;;;;;19.60;11.40;;;7.10;99.90;;;;;;2076467;28;20030;-72
2022/11/26 05:10:07;;;;;;;19.42;12.05;;;7.10;99.90;;;;;;2076123;28;20073;-73
2022/11/26 05:11:08;;;;;;;22.05;13.43;;;7.10;99.90;;;;;;2078008;28;20609;-73
2022/11/26 05:12:10;;;;;;;23.48;13.23;;;7.10;99.90;;;;;;2076826;28;20052;-73
2022/11/26 05:13:10;;;;;;;25.67;13.30;;;7.10;99.90;;;;;;2077856;28;20507;-73
2022/11/26 05:14:11;;;;;;;24.48;13.68;;;7.10;99.90;;;;;;2077094;28;20033;-73
2022/11/26 05:15:11;;;;;;;19.30;11.15;;;7.00;99.90;;;;;;2076853;28;20029;-73
2022/11/26 05:16:12;;;;;;;18.45;10.32;;;7.00;99.90;;;;;;2077641;28;20168;-72
2022/11/26 05:17:13;;;;;;;23.17;12.93;;;7.10;99.90;;;;;;2082804;28;20480;-72
2022/11/26 05:18:13;;;;;;;19.38;10.80;;;7.00;99.90;;;;;;2082413;28;20056;-72
2022/11/26 05:19:14;;;;;;;25.48;14.18;;;7.00;99.90;;;;;;2076988;28;20066;-73
2022/11/26 05:20:14;;;;;;;25.48;13.65;;;7.00;99.90;;;;;;2077357;28;20033;-73
2022/11/26 05:21:15;;;;;;;25.52;13.18;;;7.00;99.90;;;;;;2075531;28;20030;-73
2022/11/26 05:22:16;;;;;;;26.48;14.27;;;7.00;99.90;;;;;;2085316;28;20476;-73
2022/11/26 05:23:16;;;;;;;25.33;13.45;;;7.00;99.90;;;;;;2084975;28;20025;-73
2022/11/26 05:24:17;;;;;;;22.08;12.52;;;6.90;99.90;;;;;;2074503;28;20620;-72
2022/11/26 05:25:17;;;;;;;26.42;13.45;;;7.00;99.90;;;;;;2077679;28;20037;-73